Time;durP1;ratioP1;P1;durP2;ratioP2;P2;SDS_P1;SDS_P2;PMS_P1;PMS_P2;Temp;Humidity;BMP_temperature;BMP_pressure;BME280_temperature;BME280_humidity;BME280_pressure;Samples;Min_cycle;Max_cycle;Signal;HPM_P1;HPM_P2
2023/04/06 00:01:58;;;;;;;8.20;5.57;;;;;;;;;;5108652;27;20189;-81
2023/04/06 00:04:24;;;;;;;7.83;5.53;;;;;;;;;;5112658;27;20913;-81
2023/04/06 00:06:50;;;;;;;8.93;5.43;;;;;;;;;;5128486;27;20228;-82
2023/04/06 00:09:16;;;;;;;8.33;5.40;;;;;;;;;;5131573;27;20615;-82
2023/04/06 00:11:42;;;;;;;11.03;5.90;;;;;;;;;;5113139;27;20167;-81
2023/04/06 00:14:08;;;;;;;6.80;5.50;;;;;;;;;;5112080;27;20175;-81
2023/04/06 00:16:34;;;;;;;6.90;5.17;;;;;;;;;;5108843;27;20258;-82
2023/04/06 00:19:00;;;;;;;6.23;4.40;;;;;;;;;;5110025;27;20203;-82
2023/04/06 00:21:26;;;;;;;5.73;4.43;;;;;;;;;;5106657;27;20172;-81
2023/04/06 00:23:52;;;;;;;7.57;4.47;;;;;;;;;;5111437;27;20172;-81
2023/04/06 00:26:18;;;;;;;8.00;5.33;;;;;;;;;;5096935;28;20498;-81
2023/04/06 00:28:45;;;;;;;7.40;4.97;;;;;;;;;;5118121;27;20179;-81
2023/04/06 00:31:11;;;;;;;10.57;5.37;;;;;;;;;;5117285;27;20179;-81
2023/04/06 00:33:37;;;;;;;9.07;4.97;;;;;;;;;;5118281;27;20187;-81
2023/04/06 00:36:03;;;;;;;7.23;5.30;;;;;;;;;;5114326;28;20183;-81
2023/04/06 00:38:29;;;;;;;9.80;5.00;;;;;;;;;;5110845;27;20187;-81
2023/04/06 00:40:55;;;;;;;7.07;4.70;;;;;;;;;;5103694;28;20569;-82
2023/04/06 00:43:21;;;;;;;7.83;4.80;;;;;;;;;;5110540;28;20508;-82
2023/04/06 00:45:47;;;;;;;9.33;4.87;;;;;;;;;;5105531;28;20503;-82
2023/04/06 00:48:13;;;;;;;6.40;5.10;;;;;;;;;;5131001;27;20238;-82
2023/04/06 00:50:39;;;;;;;5.73;4.40;;;;;;;;;;5112429;28;20175;-82
2023/04/06 00:53:05;;;;;;;6.20;4.90;;;;;;;;;;5110170;28;20713;-81
2023/04/06 00:55:31;;;;;;;7.97;5.10;;;;;;;;;;5115301;28;20235;-81
2023/04/06 00:57:59;;;;;;;9.13;5.17;;;;;;;;;;5118476;28;20443;-81
2023/04/06 01:00:25;;;;;;;8.03;5.40;;;;;;;;;;5110491;27;20193;-81
2023/04/06 01:02:51;;;;;;;8.53;4.77;;;;;;;;;;5139212;27;20316;-81
2023/04/06 01:05:17;;;;;;;7.77;5.10;;;;;;;;;;5125748;28;20543;-81
2023/04/06 01:07:43;;;;;;;6.93;4.87;;;;;;;;;;5127169;28;20191;-81
2023/04/06 01:10:09;;;;;;;6.90;5.03;;;;;;;;;;5128549;28;20284;-81
2023/04/06 01:12:37;;;;;;;9.40;4.90;;;;;;;;;;5108117;28;20620;-81
2023/04/06 01:15:03;;;;;;;7.83;4.90;;;;;;;;;;5107096;28;20666;-81
2023/04/06 01:17:29;;;;;;;8.37;5.37;;;;;;;;;;5107090;28;20214;-81
2023/04/06 01:19:55;;;;;;;9.60;4.93;;;;;;;;;;5112703;28;20263;-81
2023/04/06 01:22:21;;;;;;;7.07;4.90;;;;;;;;;;5108709;28;20179;-81
2023/04/06 01:24:47;;;;;;;7.57;4.93;;;;;;;;;;5104641;28;20588;-81
2023/04/06 01:27:14;;;;;;;7.20;5.13;;;;;;;;;;5103876;28;20207;-81
2023/04/06 01:29:41;;;;;;;10.37;6.00;;;;;;;;;;5108611;28;20175;-81
2023/04/06 01:32:07;;;;;;;9.50;5.83;;;;;;;;;;5107610;28;20164;-82
2023/04/06 01:34:33;;;;;;;9.63;6.13;;;;;;;;;;5102362;28;20183;-81
2023/04/06 01:36:59;;;;;;;9.10;5.70;;;;;;;;;;5102797;28;20179;-81
2023/04/06 01:39:25;;;;;;;9.00;5.23;;;;;;;;;;5104432;28;20180;-81
2023/04/06 01:41:52;;;;;;;9.17;5.80;;;;;;;;;;5107909;28;20501;-82
2023/04/06 01:44:18;;;;;;;10.27;5.90;;;;;;;;;;5106728;28;20186;-81
2023/04/06 01:46:45;;;;;;;13.23;6.20;;;;;;;;;;5097273;28;20198;-81
2023/04/06 01:49:11;;;;;;;7.93;6.03;;;;;;;;;;5116169;27;20196;-81
2023/04/06 01:51:37;;;;;;;8.87;5.80;;;;;;;;;;5098029;28;20183;-81
2023/04/06 01:54:03;;;;;;;9.87;6.43;;;;;;;;;;5113677;28;20183;-81
2023/04/06 01:56:29;;;;;;;8.73;5.63;;;;;;;;;;5114122;28;20251;-81
2023/04/06 01:58:56;;;;;;;8.60;5.63;;;;;;;;;;5110671;28;20199;-81
2023/04/06 02:01:22;;;;;;;8.83;5.60;;;;;;;;;;5106206;28;20187;-81
2023/04/06 02:03:48;;;;;;;7.17;5.23;;;;;;;;;;5107436;28;20184;-81
2023/04/06 02:06:14;;;;;;;9.17;5.13;;;;;;;;;;5110477;28;20650;-81
2023/04/06 02:08:40;;;;;;;8.83;5.00;;;;;;;;;;5095879;28;20178;-81
2023/04/06 02:11:06;;;;;;;9.40;5.80;;;;;;;;;;5098486;28;20164;-81
2023/04/06 02:13:32;;;;;;;8.37;5.80;;;;;;;;;;5100322;28;20518;-81
2023/04/06 02:15:58;;;;;;;8.60;5.87;;;;;;;;;;5116432;27;20216;-81
2023/04/06 02:18:24;;;;;;;9.07;5.50;;;;;;;;;;5093813;28;20204;-81
2023/04/06 02:20:50;;;;;;;9.20;5.40;;;;;;;;;;5096115;28;20175;-81
2023/04/06 02:23:17;;;;;;;10.17;6.10;;;;;;;;;;5097844;28;20210;-81
2023/04/06 02:25:43;;;;;;;10.00;6.23;;;;;;;;;;5115604;27;20191;-81
2023/04/06 02:28:09;;;;;;;10.40;6.50;;;;;;;;;;5099810;28;20184;-80
2023/04/06 02:30:35;;;;;;;9.23;6.37;;;;;;;;;;5099532;28;20182;-81
2023/04/06 02:33:01;;;;;;;12.43;7.10;;;;;;;;;;5112047;27;20648;-81
2023/04/06 02:35:28;;;;;;;9.57;6.57;;;;;;;;;;5099041;28;20450;-81
2023/04/06 02:37:54;;;;;;;11.63;7.07;;;;;;;;;;5098473;28;20204;-81
2023/04/06 02:40:20;;;;;;;14.67;7.63;;;;;;;;;;5100020;28;20183;-81
2023/04/06 02:42:46;;;;;;;11.63;7.67;;;;;;;;;;5115067;27;20192;-81
2023/04/06 02:45:12;;;;;;;10.83;7.33;;;;;;;;;;5096351;28;20177;-81
2023/04/06 02:47:39;;;;;;;12.53;8.23;;;;;;;;;;5095574;28;20617;-81
2023/04/06 02:50:05;;;;;;;12.80;8.33;;;;;;;;;;5097592;28;20164;-81
2023/04/06 02:52:32;;;;;;;16.53;9.17;;;;;;;;;;5124065;27;20190;-81
2023/04/06 02:54:58;;;;;;;13.73;8.83;;;;;;;;;;5103148;28;20262;-82
2023/04/06 02:57:24;;;;;;;14.23;9.17;;;;;;;;;;5094636;28;20220;-82
2023/04/06 02:59:50;;;;;;;14.70;9.57;;;;;;;;;;5092733;28;20177;-82
2023/04/06 03:02:16;;;;;;;19.00;11.10;;;;;;;;;;5097318;28;20176;-82
2023/04/06 03:04:42;;;;;;;21.70;15.67;;;;;;;;;;5099354;28;20620;-82
2023/04/06 03:07:08;;;;;;;23.77;16.07;;;;;;;;;;5097642;28;20295;-82
2023/04/06 03:09:35;;;;;;;17.83;12.57;;;;;;;;;;5095829;28;20176;-81
2023/04/06 03:12:01;;;;;;;16.10;10.17;;;;;;;;;;5109786;28;20192;-82
2023/04/06 03:14:28;;;;;;;17.87;9.77;;;;;;;;;;5096742;28;20580;-81
2023/04/06 03:16:54;;;;;;;17.80;9.47;;;;;;;;;;5100038;28;20172;-82
2023/04/06 03:19:20;;;;;;;16.67;9.67;;;;;;;;;;5098644;28;20282;-82
2023/04/06 03:21:47;;;;;;;13.97;9.47;;;;;;;;;;5102762;28;20242;-81
2023/04/06 03:24:13;;;;;;;15.50;9.40;;;;;;;;;;5112618;27;20176;-81
2023/04/06 03:26:39;;;;;;;12.37;8.57;;;;;;;;;;5095132;28;20176;-81
2023/04/06 03:29:06;;;;;;;11.87;8.63;;;;;;;;;;5097537;28;20183;-82
2023/04/06 03:31:32;;;;;;;16.33;9.63;;;;;;;;;;5114107;27;20183;-82
2023/04/06 03:33:59;;;;;;;17.43;9.83;;;;;;;;;;5098029;28;20184;-82
2023/04/06 03:36:26;;;;;;;15.33;9.13;;;;;;;;;;5097933;28;20172;-82
2023/04/06 03:38:53;;;;;;;14.83;9.33;;;;;;;;;;5094591;28;20196;-82
2023/04/06 03:41:22;;;;;;;15.00;9.47;;;;;;;;;;5096557;28;20221;-82
2023/04/06 03:43:48;;;;;;;17.20;9.33;;;;;;;;;;5113955;27;20187;-81
2023/04/06 03:46:14;;;;;;;15.93;8.43;;;;;;;;;;5098845;28;20176;-81
2023/04/06 03:48:40;;;;;;;16.93;9.17;;;;;;;;;;5109008;28;20305;-81
2023/04/06 03:51:06;;;;;;;14.43;8.87;;;;;;;;;;5121175;27;20255;-81
2023/04/06 03:53:32;;;;;;;13.87;9.40;;;;;;;;;;5111355;28;20613;-81
2023/04/06 03:55:58;;;;;;;14.40;9.37;;;;;;;;;;5111565;28;20228;-82
2023/04/06 03:58:24;;;;;;;13.60;9.50;;;;;;;;;;5101255;28;20208;-81
2023/04/06 04:00:50;;;;;;;15.07;8.40;;;;;;;;;;5113820;27;20180;-81
2023/04/06 04:03:16;;;;;;;13.77;9.53;;;;;;;;;;5108675;28;20289;-81
2023/04/06 04:05:43;;;;;;;15.97;9.77;;;;;;;;;;5108660;28;20529;-81
2023/04/06 04:08:09;;;;;;;18.67;10.13;;;;;;;;;;5098392;28;20178;-81
2023/04/06 04:10:35;;;;;;;15.30;9.00;;;;;;;;;;5098367;28;20588;-82
2023/04/06 04:13:01;;;;;;;14.63;9.50;;;;;;;;;;5098261;28;20176;-81
2023/04/06 04:15:27;;;;;;;15.13;10.00;;;;;;;;;;5104398;28;20707;-81
2023/04/06 04:17:53;;;;;;;15.33;8.60;;;;;;;;;;5108769;28;20291;-81
2023/04/06 04:20:19;;;;;;;18.83;9.60;;;;;;;;;;5096214;28;20164;-82
2023/04/06 04:22:45;;;;;;;17.90;9.50;;;;;;;;;;5117269;27;20222;-81
2023/04/06 04:25:11;;;;;;;13.80;9.47;;;;;;;;;;5097936;28;20530;-83
2023/04/06 04:27:37;;;;;;;18.53;9.97;;;;;;;;;;5111263;27;20184;-82
2023/04/06 04:30:03;;;;;;;17.47;9.80;;;;;;;;;;5108509;28;20640;-82
2023/04/06 04:32:29;;;;;;;13.57;8.97;;;;;;;;;;5108119;28;20247;-82
2023/04/06 04:34:55;;;;;;;16.90;9.23;;;;;;;;;;5105879;28;20267;-81
2023/04/06 04:37:21;;;;;;;14.93;9.07;;;;;;;;;;5103104;28;20671;-81
2023/04/06 04:39:47;;;;;;;12.90;8.87;;;;;;;;;;5103451;28;20211;-81
2023/04/06 04:42:13;;;;;;;16.67;8.77;;;;;;;;;;5107704;28;20181;-82
2023/04/06 04:44:39;;;;;;;15.40;9.70;;;;;;;;;;5094140;28;20169;-82
2023/04/06 04:47:05;;;;;;;16.00;9.07;;;;;;;;;;5098471;28;20216;-82
2023/04/06 04:49:31;;;;;;;13.20;9.03;;;;;;;;;;5112918;28;20184;-81
2023/04/06 04:51:57;;;;;;;16.53;9.20;;;;;;;;;;5095174;28;20171;-81
2023/04/06 04:54:23;;;;;;;13.63;8.33;;;;;;;;;;5106397;28;20186;-81
2023/04/06 04:56:50;;;;;;;14.80;9.30;;;;;;;;;;5106690;28;20628;-79
2023/04/06 04:59:16;;;;;;;18.40;9.70;;;;;;;;;;5105099;28;20204;-82
2023/04/06 05:01:42;;;;;;;14.00;8.57;;;;;;;;;;5096556;28;20180;-84
2023/04/06 05:04:08;;;;;;;13.53;7.90;;;;;;;;;;5115506;28;20172;-82
2023/04/06 05:06:34;;;;;;;13.73;8.30;;;;;;;;;;5097091;28;20172;-83
2023/04/06 05:09:00;;;;;;;14.80;8.47;;;;;;;;;;5107056;28;20644;-83
2023/04/06 05:11:26;;;;;;;13.40;8.60;;;;;;;;;;5106328;28;20174;-83
2023/04/06 05:13:52;;;;;;;13.63;8.23;;;;;;;;;;5098957;28;20234;-84
2023/04/06 05:16:18;;;;;;;16.17;9.83;;;;;;;;;;5115230;28;20220;-83
2023/04/06 05:18:44;;;;;;;17.13;10.10;;;;;;;;;;5098222;28;20667;-83
2023/04/06 05:21:11;;;;;;;17.43;8.57;;;;;;;;;;5091577;28;20213;-83
2023/04/06 05:23:37;;;;;;;16.17;9.13;;;;;;;;;;5110165;28;20279;-83
2023/04/06 05:26:04;;;;;;;11.97;7.77;;;;;;;;;;5107639;28;20358;-84
2023/04/06 05:28:30;;;;;;;15.67;8.60;;;;;;;;;;5109544;28;20631;-83
2023/04/06 05:30:56;;;;;;;15.90;9.30;;;;;;;;;;5099475;28;20236;-84
2023/04/06 05:33:23;;;;;;;18.23;10.67;;;;;;;;;;5111273;28;20180;-83
2023/04/06 05:35:49;;;;;;;14.37;9.00;;;;;;;;;;5110304;28;20171;-84
2023/04/06 05:38:15;;;;;;;15.27;9.47;;;;;;;;;;5109198;28;20199;-84
2023/04/06 05:40:41;;;;;;;11.50;8.53;;;;;;;;;;5097621;28;20624;-85
2023/04/06 05:43:08;;;;;;;15.03;9.03;;;;;;;;;;5097070;28;20195;-84
2023/04/06 05:45:34;;;;;;;15.60;9.47;;;;;;;;;;5102620;28;20196;-84
2023/04/06 05:48:01;;;;;;;17.87;9.50;;;;;;;;;;5108515;28;20279;-84
2023/04/06 05:50:27;;;;;;;13.43;8.33;;;;;;;;;;5098667;28;20176;-84
2023/04/06 05:52:53;;;;;;;12.17;7.40;;;;;;;;;;5124133;27;20179;-84
2023/04/06 05:55:20;;;;;;;13.60;8.03;;;;;;;;;;5110662;28;20692;-87
2023/04/06 05:57:46;;;;;;;12.73;7.63;;;;;;;;;;5109868;28;20606;-83
2023/04/06 06:00:12;;;;;;;13.97;7.97;;;;;;;;;;5109393;28;20242;-85
2023/04/06 06:02:39;;;;;;;8.80;6.50;;;;;;;;;;5099288;28;20247;-77
2023/04/06 06:05:05;;;;;;;14.17;6.60;;;;;;;;;;5099951;28;20664;-79
2023/04/06 06:07:31;;;;;;;14.57;7.07;;;;;;;;;;5099603;28;20180;-78
2023/04/06 06:09:58;;;;;;;10.07;6.73;;;;;;;;;;5112919;27;20580;-78
2023/04/06 06:12:24;;;;;;;10.07;6.50;;;;;;;;;;5096450;28;20176;-78
2023/04/06 06:14:50;;;;;;;10.03;6.27;;;;;;;;;;5097001;28;20562;-78
2023/04/06 06:17:16;;;;;;;12.27;6.80;;;;;;;;;;5108834;28;20168;-78
2023/04/06 06:19:42;;;;;;;25.67;7.47;;;;;;;;;;5105512;28;20313;-78
2023/04/06 06:22:08;;;;;;;10.23;6.10;;;;;;;;;;5108412;28;20181;-78
2023/04/06 06:24:34;;;;;;;13.43;6.83;;;;;;;;;;5111262;28;20187;-78
2023/04/06 06:27:25;;;;;;;8.80;6.53;;;;;;;;;;5095643;28;20178;-78
2023/04/06 06:29:51;;;;;;;10.20;6.43;;;;;;;;;;5109400;28;20624;-78
2023/04/06 06:32:26;;;;;;;6.93;5.23;;;;;;;;;;5110419;28;20216;-78
2023/04/06 06:34:51;;;;;;;10.17;6.27;;;;;;;;;;5105309;28;20179;-77
2023/04/06 06:37:17;;;;;;;9.57;6.00;;;;;;;;;;5107598;28;20566;-78
2023/04/06 06:39:44;;;;;;;11.77;5.70;;;;;;;;;;5106920;28;20213;-78
2023/04/06 06:42:10;;;;;;;7.70;5.40;;;;;;;;;;5109190;28;20651;-78
2023/04/06 06:44:36;;;;;;;12.00;5.97;;;;;;;;;;5109445;28;20175;-78
2023/04/06 06:47:02;;;;;;;6.67;5.43;;;;;;;;;;5108041;28;20191;-78
2023/04/06 06:49:28;;;;;;;8.80;5.97;;;;;;;;;;5103892;28;20533;-78
2023/04/06 06:51:54;;;;;;;9.33;5.43;;;;;;;;;;5107409;28;20514;-79
2023/04/06 06:54:20;;;;;;;19.70;7.97;;;;;;;;;;5110028;28;20190;-78
2023/04/06 06:56:46;;;;;;;14.13;7.90;;;;;;;;;;5108162;28;20194;-78
2023/04/06 06:59:12;;;;;;;13.50;7.80;;;;;;;;;;5107540;28;20290;-78
2023/04/06 07:01:38;;;;;;;9.73;6.83;;;;;;;;;;5104520;28;20715;-79
2023/04/06 07:04:05;;;;;;;8.83;4.80;;;;;;;;;;5109906;28;20688;-78
2023/04/06 07:06:30;;;;;;;17.67;5.23;;;;;;;;;;5109950;27;20177;-79
2023/04/06 07:08:57;;;;;;;5.63;4.63;;;;;;;;;;5109779;28;20616;-78
2023/04/06 07:11:23;;;;;;;10.90;5.33;;;;;;;;;;5101680;28;20220;-78
2023/04/06 07:13:49;;;;;;;6.70;4.40;;;;;;;;;;5106120;28;20248;-79
2023/04/06 07:16:16;;;;;;;6.73;4.53;;;;;;;;;;5103859;28;20220;-79
2023/04/06 07:18:42;;;;;;;9.43;5.57;;;;;;;;;;5108557;28;20206;-79
2023/04/06 07:21:08;;;;;;;8.30;4.97;;;;;;;;;;5095754;28;20172;-79
2023/04/06 07:23:34;;;;;;;7.27;3.80;;;;;;;;;;5107042;28;20174;-79
2023/04/06 07:26:00;;;;;;;6.53;3.80;;;;;;;;;;5106114;28;20227;-79
2023/04/06 07:28:26;;;;;;;5.97;4.50;;;;;;;;;;5107418;28;20192;-79
2023/04/06 07:30:52;;;;;;;8.87;4.37;;;;;;;;;;5111739;27;20522;-79
2023/04/06 07:33:18;;;;;;;12.47;4.57;;;;;;;;;;5110682;28;20854;-79
2023/04/06 07:35:45;;;;;;;7.33;5.10;;;;;;;;;;5109217;28;20167;-79
2023/04/06 07:38:11;;;;;;;7.17;4.60;;;;;;;;;;5106833;28;20240;-80
2023/04/06 07:40:37;;;;;;;7.17;4.60;;;;;;;;;;5110524;28;20214;-78
2023/04/06 07:43:03;;;;;;;10.07;4.80;;;;;;;;;;5104981;28;20196;-81
2023/04/06 07:45:29;;;;;;;6.83;4.10;;;;;;;;;;5112727;28;20183;-79
2023/04/06 07:47:55;;;;;;;5.97;4.70;;;;;;;;;;5112357;28;20164;-79
2023/04/06 07:50:21;;;;;;;7.00;5.03;;;;;;;;;;5108289;28;20645;-78
2023/04/06 07:55:51;;;;;;;7.97;4.03;;;;;;;;;;5101732;28;20235;-79
2023/04/06 07:58:17;;;;;;;6.20;4.60;;;;;;;;;;5106775;28;20207;-81
2023/04/06 08:03:46;;;;;;;6.00;4.30;;;;;;;;;;5092380;28;20229;-79
2023/04/06 08:06:12;;;;;;;10.27;4.80;;;;;;;;;;5105435;28;20168;-79
2023/04/06 08:08:38;;;;;;;4.47;3.97;;;;;;;;;;5102683;28;20175;-79
2023/04/06 08:11:04;;;;;;;7.27;4.63;;;;;;;;;;5103511;28;20600;-79
2023/04/06 08:13:30;;;;;;;6.13;4.43;;;;;;;;;;5106671;28;20179;-79
2023/04/06 08:15:56;;;;;;;6.53;4.40;;;;;;;;;;5120651;27;20696;-79
2023/04/06 08:18:22;;;;;;;6.47;4.17;;;;;;;;;;5115374;27;20207;-79
2023/04/06 08:20:49;;;;;;;7.03;4.63;;;;;;;;;;5127296;27;20182;-79
2023/04/06 08:23:15;;;;;;;10.37;4.97;;;;;;;;;;5100246;28;20214;-79
2023/04/06 08:25:42;;;;;;;8.90;4.73;;;;;;;;;;5096493;28;20211;-79
2023/04/06 08:28:09;;;;;;;8.40;4.07;;;;;;;;;;5114761;27;20191;-79
2023/04/06 08:30:35;;;;;;;8.50;4.50;;;;;;;;;;5129735;27;20203;-79
2023/04/06 08:33:01;;;;;;;8.03;4.47;;;;;;;;;;5117176;27;20619;-79
2023/04/06 08:35:28;;;;;;;7.37;4.80;;;;;;;;;;5114351;27;20623;-79
2023/04/06 08:37:54;;;;;;;8.20;4.83;;;;;;;;;;5096553;28;20211;-79
2023/04/06 08:40:20;;;;;;;8.10;3.93;;;;;;;;;;5096491;27;20646;-79
2023/04/06 08:42:50;;;;;;;9.63;4.63;;;;;;;;;;5111276;27;20232;-82
2023/04/06 08:45:17;;;;;;;9.53;4.80;;;;;;;;;;5110318;27;20808;-80
2023/04/06 08:47:44;;;;;;;7.17;4.60;;;;;;;;;;5120769;27;20206;-80
2023/04/06 08:50:11;;;;;;;7.00;4.07;;;;;;;;;;5124271;28;20175;-78
2023/04/06 08:52:37;;;;;;;5.50;4.33;;;;;;;;;;5105482;28;20543;-78
2023/04/06 08:55:03;;;;;;;9.73;5.03;;;;;;;;;;5109179;28;20513;-78
2023/04/06 08:57:29;;;;;;;7.67;5.13;;;;;;;;;;5126083;27;20205;-78
2023/04/06 08:59:57;;;;;;;7.13;4.60;;;;;;;;;;5134438;27;20165;-78
2023/04/06 09:02:24;;;;;;;8.20;5.10;;;;;;;;;;5128612;27;20630;-78
2023/04/06 09:04:52;;;;;;;8.23;5.23;;;;;;;;;;5123494;27;20258;-78
2023/04/06 09:07:18;;;;;;;9.00;5.33;;;;;;;;;;5129445;27;20292;-78
2023/04/06 09:09:47;;;;;;;6.70;4.87;;;;;;;;;;5120985;27;20596;-77
2023/04/06 09:12:29;;;;;;;7.47;5.00;;;;;;;;;;5130861;27;20194;-78
2023/04/06 09:14:56;;;;;;;6.10;4.43;;;;;;;;;;5133737;27;20234;-78
2023/04/06 09:17:23;;;;;;;8.67;5.37;;;;;;;;;;5130797;27;20171;-78
2023/04/06 09:19:49;;;;;;;10.47;4.77;;;;;;;;;;5114544;27;20179;-78
2023/04/06 09:22:15;;;;;;;7.10;4.97;;;;;;;;;;5132560;27;20190;-78
2023/04/06 09:24:45;;;;;;;6.37;4.50;;;;;;;;;;5120750;27;20224;-77
2023/04/06 09:27:11;;;;;;;8.40;4.77;;;;;;;;;;5119001;27;20180;-77
2023/04/06 09:29:37;;;;;;;8.17;5.00;;;;;;;;;;5127701;27;20531;-78
2023/04/06 09:32:04;;;;;;;8.87;5.57;;;;;;;;;;5130347;27;20187;-77
2023/04/06 09:34:30;;;;;;;9.10;5.20;;;;;;;;;;5129003;27;20179;-77
2023/04/06 09:36:56;;;;;;;10.67;6.07;;;;;;;;;;5099598;27;20200;-77
2023/04/06 09:39:23;;;;;;;10.13;6.37;;;;;;;;;;5131636;27;20356;-77
2023/04/06 09:41:52;;;;;;;9.87;5.00;;;;;;;;;;5107937;27;20574;-78
2023/04/06 09:44:19;;;;;;;8.50;4.77;;;;;;;;;;5107449;28;20554;-77
2023/04/06 09:46:46;;;;;;;10.60;4.87;;;;;;;;;;5109158;27;20271;-77
2023/04/06 09:49:13;;;;;;;7.50;5.03;;;;;;;;;;5133203;27;20187;-77
2023/04/06 09:51:40;;;;;;;6.90;5.13;;;;;;;;;;5115575;27;20277;-78
2023/04/06 09:54:07;;;;;;;10.10;5.17;;;;;;;;;;5117970;27;20168;-78
2023/04/06 09:57:12;;;;;;;6.37;5.03;;;;;;;;;;5099138;28;20180;-78
2023/04/06 09:59:56;;;;;;;7.83;5.03;;;;;;;;;;5024603;28;20252;-77
2023/04/06 10:02:32;;;;;;;12.27;5.33;;;;;;;;;;5030245;28;20182;-78
2023/04/06 10:05:05;;;;;;;7.77;5.57;;;;;;;;;;5013642;28;20190;-78
2023/04/06 10:07:32;;;;;;;6.60;5.50;;;;;;;;;;5029059;28;20187;-78
2023/04/06 10:09:59;;;;;;;8.30;6.57;;;;;;;;;;5029912;28;20191;-78
2023/04/06 10:12:25;;;;;;;9.67;6.50;;;;;;;;;;5029071;28;20171;-78
2023/04/06 10:14:51;;;;;;;11.10;6.53;;;;;;;;;;5028484;28;20566;-78
2023/04/06 10:17:17;;;;;;;11.77;6.30;;;;;;;;;;5026837;28;20652;-76
2023/04/06 10:20:00;;;;;;;7.57;6.30;;;;;;;;;;5019945;28;20186;-76
2023/04/06 10:22:33;;;;;;;8.47;6.10;;;;;;;;;;5029574;28;20638;-77
2023/04/06 10:24:59;;;;;;;9.93;6.53;;;;;;;;;;5031017;28;20329;-77
2023/04/06 10:27:29;;;;;;;11.57;7.23;;;;;;;;;;5029602;28;20166;-76
2023/04/06 10:30:00;;;;;;;9.23;6.50;;;;;;;;;;5059465;27;20211;-77
2023/04/06 10:32:34;;;;;;;9.50;6.70;;;;;;;;;;5112050;27;20187;-77
2023/04/06 10:35:15;;;;;;;8.37;6.10;;;;;;;;;;5127781;27;20182;-79
2023/04/06 10:38:08;;;;;;;7.20;5.80;;;;;;;;;;5124440;27;20284;-77
2023/04/06 10:40:38;;;;;;;8.47;6.00;;;;;;;;;;5124049;27;20188;-78
2023/04/06 10:43:14;;;;;;;13.07;5.87;;;;;;;;;;5113369;27;20194;-78
2023/04/06 10:45:42;;;;;;;7.23;5.97;;;;;;;;;;5118545;27;20687;-78
2023/04/06 10:48:15;;;;;;;10.10;6.63;;;;;;;;;;5130043;27;20178;-79
2023/04/06 10:50:45;;;;;;;11.20;7.30;;;;;;;;;;5128245;27;20197;-78
2023/04/06 10:53:11;;;;;;;11.53;7.40;;;;;;;;;;5124859;27;20176;-77
2023/04/06 10:55:41;;;;;;;7.47;6.33;;;;;;;;;;5115849;27;20180;-77
2023/04/06 10:58:08;;;;;;;16.33;7.93;;;;;;;;;;5095989;27;20203;-77
2023/04/06 11:00:34;;;;;;;8.73;7.10;;;;;;;;;;5107581;28;20638;-77
2023/04/06 11:03:01;;;;;;;10.77;7.70;;;;;;;;;;5126835;27;20183;-77
2023/04/06 11:05:27;;;;;;;11.53;7.40;;;;;;;;;;5127634;27;20171;-77
2023/04/06 11:07:53;;;;;;;11.07;7.23;;;;;;;;;;5129597;27;20278;-77
2023/04/06 11:10:23;;;;;;;11.27;7.67;;;;;;;;;;5115631;27;20675;-78
2023/04/06 11:12:57;;;;;;;13.17;7.70;;;;;;;;;;5115847;27;20168;-79
2023/04/06 11:15:24;;;;;;;10.70;7.10;;;;;;;;;;5129030;27;20220;-78
2023/04/06 11:17:50;;;;;;;9.97;7.60;;;;;;;;;;5128980;27;20666;-78
2023/04/06 11:20:17;;;;;;;10.30;7.17;;;;;;;;;;5126948;27;20202;-78
2023/04/06 11:22:52;;;;;;;9.77;7.80;;;;;;;;;;5130041;27;20201;-79
2023/04/06 11:25:19;;;;;;;12.60;8.17;;;;;;;;;;5114441;27;20240;-78
2023/04/06 11:27:46;;;;;;;10.40;7.47;;;;;;;;;;5099135;28;20195;-78
2023/04/06 11:30:12;;;;;;;11.93;8.40;;;;;;;;;;5118896;27;20548;-78
2023/04/06 11:32:44;;;;;;;10.07;8.40;;;;;;;;;;5123645;27;20824;-79
2023/04/06 11:35:20;;;;;;;12.03;8.53;;;;;;;;;;5108726;27;20187;-78
2023/04/06 11:37:46;;;;;;;13.57;9.03;;;;;;;;;;5115112;27;20295;-78
2023/04/06 11:40:12;;;;;;;12.20;8.33;;;;;;;;;;5130307;27;20186;-78
2023/04/06 11:42:38;;;;;;;12.13;9.17;;;;;;;;;;5117213;27;20172;-78
2023/04/06 11:45:05;;;;;;;11.60;8.63;;;;;;;;;;5101122;27;20184;-78
2023/04/06 11:47:33;;;;;;;14.27;11.43;;;;;;;;;;5125190;27;20190;-78
2023/04/06 11:50:08;;;;;;;19.53;12.53;;;;;;;;;;5108836;27;20183;-78
2023/04/06 11:52:34;;;;;;;16.47;11.07;;;;;;;;;;5128974;27;20186;-78
2023/04/06 11:55:10;;;;;;;16.23;11.53;;;;;;;;;;5109395;27;20614;-78
2023/04/06 11:57:36;;;;;;;19.90;12.20;;;;;;;;;;5098412;28;20191;-78
2023/04/06 12:00:02;;;;;;;14.63;10.27;;;;;;;;;;5100829;28;20508;-78
2023/04/06 12:02:28;;;;;;;16.50;11.60;;;;;;;;;;5101977;27;20182;-79
2023/04/06 12:04:54;;;;;;;17.10;11.73;;;;;;;;;;5111016;27;20554;-79
2023/04/06 12:07:20;;;;;;;15.77;11.23;;;;;;;;;;5114919;27;20179;-79
2023/04/06 12:09:46;;;;;;;13.67;9.07;;;;;;;;;;5128519;27;20650;-77
2023/04/06 12:12:12;;;;;;;14.77;9.47;;;;;;;;;;5117541;27;20179;-78
2023/04/06 12:14:38;;;;;;;12.53;9.40;;;;;;;;;;5120620;27;20294;-78
2023/04/06 12:17:04;;;;;;;14.60;9.63;;;;;;;;;;5127635;27;20179;-78
2023/04/06 12:19:30;;;;;;;13.07;9.43;;;;;;;;;;5114429;27;20202;-78
2023/04/06 12:21:57;;;;;;;14.27;9.77;;;;;;;;;;5128450;27;20167;-77
2023/04/06 12:24:23;;;;;;;13.57;9.90;;;;;;;;;;5107915;27;20198;-76
2023/04/06 12:26:50;;;;;;;16.60;11.67;;;;;;;;;;5104307;28;20183;-76
2023/04/06 12:29:16;;;;;;;13.00;9.80;;;;;;;;;;5117297;27;20185;-76
2023/04/06 12:31:44;;;;;;;12.70;9.80;;;;;;;;;;5127713;27;20271;-77
2023/04/06 12:34:10;;;;;;;14.67;10.23;;;;;;;;;;5114323;27;20167;-77
2023/04/06 12:36:37;;;;;;;11.40;9.37;;;;;;;;;;5103670;27;20190;-77
2023/04/06 12:39:03;;;;;;;19.53;11.80;;;;;;;;;;5129060;27;20720;-77
2023/04/06 12:41:29;;;;;;;13.20;9.83;;;;;;;;;;5104334;28;20274;-77
2023/04/06 12:43:55;;;;;;;14.87;10.07;;;;;;;;;;5099423;27;20809;-77
2023/04/06 12:46:22;;;;;;;10.87;8.83;;;;;;;;;;5104111;28;20183;-77
2023/04/06 12:51:52;;;;;;;13.33;9.20;;;;;;;;;;5129016;27;20668;-77
2023/04/06 12:54:18;;;;;;;10.53;8.33;;;;;;;;;;5124126;27;20214;-77
2023/04/06 12:56:44;;;;;;;14.00;8.37;;;;;;;;;;5126910;28;20183;-77
2023/04/06 12:59:11;;;;;;;9.93;8.13;;;;;;;;;;5108277;28;20203;-79
2023/04/06 13:01:37;;;;;;;10.73;7.80;;;;;;;;;;5095523;28;20171;-78
2023/04/06 13:04:03;;;;;;;12.47;8.50;;;;;;;;;;5115423;28;20199;-77
2023/04/06 13:06:30;;;;;;;13.37;8.80;;;;;;;;;;5125812;28;20195;-77
2023/04/06 13:08:56;;;;;;;14.70;9.37;;;;;;;;;;5119116;28;20175;-79
2023/04/06 13:11:23;;;;;;;15.47;9.97;;;;;;;;;;5116755;28;20578;-78
2023/04/06 13:13:50;;;;;;;12.70;8.73;;;;;;;;;;5128311;28;20528;-78
2023/04/06 13:16:16;;;;;;;12.43;8.60;;;;;;;;;;5093013;28;20219;-78
2023/04/06 13:18:42;;;;;;;13.40;9.63;;;;;;;;;;5116346;28;20206;-78
2023/04/06 13:21:08;;;;;;;9.97;8.23;;;;;;;;;;5117087;28;20184;-78
2023/04/06 13:23:35;;;;;;;11.33;9.00;;;;;;;;;;5116377;28;20175;-78
2023/04/06 13:26:05;;;;;;;10.50;7.83;;;;;;;;;;5111769;28;20179;-78
2023/04/06 13:28:31;;;;;;;12.00;8.60;;;;;;;;;;5111958;28;20228;-78
2023/04/06 13:30:59;;;;;;;14.13;8.70;;;;;;;;;;5115772;28;20617;-78
2023/04/06 13:33:25;;;;;;;12.23;9.37;;;;;;;;;;5116937;28;20183;-76
2023/04/06 13:35:52;;;;;;;13.53;9.10;;;;;;;;;;5099093;28;20744;-76
2023/04/06 13:38:18;;;;;;;13.90;10.50;;;;;;;;;;5098400;28;20203;-77
2023/04/06 13:40:44;;;;;;;12.47;8.70;;;;;;;;;;5110049;28;20172;-77
2023/04/06 13:43:10;;;;;;;10.83;8.10;;;;;;;;;;5115673;27;20251;-77
2023/04/06 13:45:37;;;;;;;12.27;8.67;;;;;;;;;;5130004;27;20185;-77
2023/04/06 13:48:03;;;;;;;11.33;9.77;;;;;;;;;;5124781;27;20578;-77
2023/04/06 13:50:29;;;;;;;12.63;9.93;;;;;;;;;;5121061;27;20250;-76
2023/04/06 13:52:56;;;;;;;12.07;8.90;;;;;;;;;;5113026;27;20176;-76
2023/04/06 13:55:24;;;;;;;11.50;8.00;;;;;;;;;;5097316;28;20172;-79
2023/04/06 13:57:50;;;;;;;10.30;7.63;;;;;;;;;;5111796;27;20194;-77
2023/04/06 14:00:17;;;;;;;10.03;7.47;;;;;;;;;;5104924;28;20210;-78
2023/04/06 14:02:43;;;;;;;8.80;7.33;;;;;;;;;;5097538;28;20229;-77
2023/04/06 14:05:10;;;;;;;8.50;7.50;;;;;;;;;;5101740;27;20178;-78
2023/04/06 14:07:36;;;;;;;10.57;8.23;;;;;;;;;;5115406;27;20187;-78
2023/04/06 14:10:02;;;;;;;11.13;8.73;;;;;;;;;;5119634;27;20211;-78
2023/04/06 14:12:28;;;;;;;12.90;7.07;;;;;;;;;;5128185;27;20213;-78
2023/04/06 14:14:55;;;;;;;12.07;8.17;;;;;;;;;;5105310;27;20207;-78
2023/04/06 14:17:21;;;;;;;9.67;7.30;;;;;;;;;;5111248;27;20199;-78
2023/04/06 14:19:47;;;;;;;10.63;8.30;;;;;;;;;;5130725;27;20204;-77
2023/04/06 14:22:13;;;;;;;13.00;8.57;;;;;;;;;;5133837;27;20722;-78
2023/04/06 14:24:39;;;;;;;11.17;8.97;;;;;;;;;;5128866;27;20486;-78
2023/04/06 14:27:06;;;;;;;10.87;7.97;;;;;;;;;;5127206;27;20639;-78
2023/04/06 14:29:32;;;;;;;14.27;8.27;;;;;;;;;;5111128;27;20180;-78
2023/04/06 14:31:59;;;;;;;11.53;8.23;;;;;;;;;;5113656;27;20178;-79
2023/04/06 14:34:29;;;;;;;11.93;8.83;;;;;;;;;;5131186;27;20163;-78
2023/04/06 14:36:55;;;;;;;10.50;8.07;;;;;;;;;;5113824;28;20164;-77
2023/04/06 14:39:21;;;;;;;9.93;8.27;;;;;;;;;;5111765;27;20347;-78
2023/04/06 14:41:47;;;;;;;10.60;8.67;;;;;;;;;;5127469;27;20262;-78